Time,TemperatureF,DewpointF,PressureIn,WindDirection,WindDirectionDegrees,WindSpeedMPH,WindSpeedGustMPH,Humidity,HourlyPrecipIn,Conditions,Clouds,dailyrainin,SoftwareType,DateUTC
2016-07-24 00:00:00,84.7,73.0,-100.00,WSW,247,0.0,0.0,68,0.00,,,0.00,meteohub,2016-07-24 05:00:00,
2016-07-24 00:05:00,84.6,72.9,-100.00,WSW,247,0.0,0.0,68,0.00,,,0.00,meteohub,2016-07-24 05:05:00,
2016-07-24 00:10:00,84.4,73.0,-100.00,SSW,202,0.0,0.0,69,0.00,,,0.00,meteohub,2016-07-24 05:10:00,
2016-07-24 00:15:00,84.2,72.9,-100.00,SSW,202,0.0,0.0,69,0.00,,,0.00,meteohub,2016-07-24 05:15:00,
2016-07-24 00:20:00,84.2,72.5,-100.00,WSW,247,0.0,1.0,68,0.00,,,0.00,meteohub,2016-07-24 05:20:00,
2016-07-24 00:25:00,84.0,72.7,-100.00,SW,225,0.0,1.0,69,0.00,,,0.00,meteohub,2016-07-24 05:25:00,
2016-07-24 00:31:00,83.8,72.5,-100.00,SW,225,0.0,0.0,69,0.00,,,0.00,meteohub,2016-07-24 05:31:00,
2016-07-24 00:36:00,83.7,72.9,-100.00,SSW,202,0.0,0.0,70,0.00,,,0.00,meteohub,2016-07-24 05:36:00,
2016-07-24 00:41:00,83.5,73.0,-100.00,SSE,157,2.0,0.0,71,0.00,,,0.00,meteohub,2016-07-24 05:41:00,
2016-07-24 00:46:00,83.1,73.2,-100.00,SSE,157,3.0,3.0,72,0.00,,,0.00,meteohub,2016-07-24 05:46:00,
2016-07-24 00:51:00,82.9,72.5,-100.00,SSE,157,2.0,3.0,71,0.00,,,0.00,meteohub,2016-07-24 05:51:00,
2016-07-24 00:56:00,82.8,72.9,-100.00,SSE,157,1.0,3.0,72,0.00,,,0.00,meteohub,2016-07-24 05:56:00,
2016-07-24 01:01:00,82.8,72.9,-100.00,SSE,157,2.0,3.0,72,0.00,,,0.00,meteohub,2016-07-24 06:01:00,
2016-07-24 01:06:00,82.4,72.5,-100.00,SE,135,2.0,2.0,72,0.00,,,0.00,meteohub,2016-07-24 06:06:00,
2016-07-24 01:11:00,82.4,72.0,-100.00,SSE,157,2.0,3.0,71,0.00,,,0.00,meteohub,2016-07-24 06:11:00,
2016-07-24 01:16:00,82.2,72.7,-100.00,SE,135,2.0,3.0,73,0.00,,,0.00,meteohub,2016-07-24 06:16:00,
2016-07-24 01:21:00,82.0,72.5,-100.00,SE,135,1.0,3.0,73,0.00,,,0.00,meteohub,2016-07-24 06:21:00,
2016-07-24 01:26:00,82.0,72.5,-100.00,SSE,157,0.0,3.0,73,0.00,,,0.00,meteohub,2016-07-24 06:26:00,
2016-07-24 01:31:00,82.0,72.9,-100.00,SSE,157,0.0,3.0,74,0.00,,,0.00,meteohub,2016-07-24 06:31:00,
2016-07-24 01:36:00,81.7,72.5,-100.00,SSE,157,0.0,2.0,74,0.00,,,0.00,meteohub,2016-07-24 06:36:00,
2016-07-24 01:41:00,81.7,73.0,-100.00,SSE,157,0.0,0.0,75,0.00,,,0.00,meteohub,2016-07-24 06:41:00,
2016-07-24 01:46:00,81.7,73.0,-100.00,SW,225,0.0,0.0,75,0.00,,,0.00,meteohub,2016-07-24 06:46:00,
2016-07-24 01:52:00,81.3,73.0,-100.00,SSW,202,0.0,0.0,76,0.00,,,0.00,meteohub,2016-07-24 06:52:00,
2016-07-24 01:57:00,81.1,72.9,-100.00,SSW,202,1.0,0.0,76,0.00,,,0.00,meteohub,2016-07-24 06:57:00,
2016-07-24 02:02:00,81.1,72.9,-100.00,SW,225,0.0,2.0,76,0.00,,,0.00,meteohub,2016-07-24 07:02:00,
2016-07-24 02:07:00,81.0,72.3,-100.00,SSW,202,0.0,2.0,75,0.00,,,0.00,meteohub,2016-07-24 07:07:00,
2016-07-24 02:12:00,80.8,72.1,-100.00,South,180,3.0,3.0,75,0.00,,,0.00,meteohub,2016-07-24 07:12:00,
2016-07-24 02:17:00,80.8,72.5,-100.00,South,180,0.0,3.0,76,0.00,,,0.00,meteohub,2016-07-24 07:17:00,
2016-07-24 02:22:00,80.6,72.0,-100.00,SSE,157,2.0,3.0,75,0.00,,,0.00,meteohub,2016-07-24 07:22:00,